createdAt,value
2023-05-03T00:02:17.570Z,3.20
2023-05-03T00:04:46.240Z,1.90
2023-05-03T00:07:14.349Z,1.75
2023-05-03T00:09:42.054Z,1.77
2023-05-03T00:12:09.705Z,2.08
2023-05-03T00:14:38.626Z,1.85
2023-05-03T00:17:06.418Z,1.55
2023-05-03T00:19:35.595Z,1.90
2023-05-03T00:22:03.853Z,2.20
2023-05-03T00:24:31.539Z,1.73
2023-05-03T00:26:59.196Z,1.90
2023-05-03T00:29:26.796Z,2.20
2023-05-03T00:31:55.669Z,2.03
2023-05-03T00:34:23.327Z,1.80
2023-05-03T00:36:51.391Z,1.80
2023-05-03T00:39:19.044Z,2.13
2023-05-03T00:41:46.705Z,2.40
2023-05-03T00:44:14.464Z,1.73
2023-05-03T00:46:42.349Z,2.00
2023-05-03T00:49:11.579Z,1.80
2023-05-03T00:51:39.516Z,1.88
2023-05-03T00:54:07.345Z,2.55
2023-05-03T00:56:44.268Z,2.17
2023-05-03T00:59:16.061Z,1.65
2023-05-03T01:01:43.777Z,2.00
2023-05-03T01:04:12.871Z,2.53
2023-05-03T01:06:45.458Z,2.83
2023-05-03T01:09:18.860Z,2.20
2023-05-03T01:11:54.361Z,2.00
2023-05-03T01:14:30.719Z,2.42
2023-05-03T01:17:05.538Z,1.98
2023-05-03T01:19:38.863Z,2.75
2023-05-03T01:22:18.944Z,2.83
2023-05-03T01:24:51.960Z,2.20
2023-05-03T01:27:21.195Z,2.45
2023-05-03T01:29:48.819Z,2.70
2023-05-03T01:32:25.060Z,2.88
2023-05-03T01:35:02.802Z,2.22
2023-05-03T01:37:31.129Z,2.22
2023-05-03T01:40:02.314Z,2.20
2023-05-03T01:42:33.262Z,2.42
2023-05-03T01:45:04.021Z,2.28
2023-05-03T01:47:31.891Z,2.38
2023-05-03T01:49:59.592Z,2.65
2023-05-03T01:52:27.423Z,2.38
2023-05-03T01:54:55.085Z,1.80
2023-05-03T01:57:22.787Z,2.30
2023-05-03T01:59:51.824Z,2.47
2023-05-03T02:02:19.514Z,2.63
2023-05-03T02:04:47.353Z,2.22
2023-05-03T02:07:15.215Z,2.50
2023-05-03T02:09:42.904Z,2.10
2023-05-03T02:12:11.365Z,2.13
2023-05-03T02:14:39.208Z,2.58
2023-05-03T02:17:08.763Z,1.88
2023-05-03T02:19:36.501Z,2.90
2023-05-03T02:22:04.118Z,2.90
2023-05-03T02:24:31.770Z,2.67
2023-05-03T02:26:59.506Z,1.77
2023-05-03T02:29:27.167Z,2.40
2023-05-03T02:31:54.960Z,2.00
2023-05-03T02:34:24.334Z,1.85
2023-05-03T02:36:54.337Z,2.15
2023-05-03T02:39:21.999Z,3.33
2023-05-03T02:41:49.616Z,2.03
2023-05-03T02:44:17.389Z,2.40
2023-05-03T02:46:45.436Z,2.63
2023-05-03T02:49:13.326Z,2.35
2023-05-03T02:51:42.594Z,2.80
2023-05-03T02:54:10.260Z,2.35
2023-05-03T02:56:38.095Z,2.20
2023-05-03T02:59:05.798Z,2.35
2023-05-03T03:01:35.001Z,2.65
2023-05-03T03:04:02.736Z,2.72
2023-05-03T03:06:31.475Z,2.70
2023-05-03T03:09:00.665Z,3.00
2023-05-03T03:11:28.280Z,3.22
2023-05-03T03:13:55.954Z,2.95
2023-05-03T03:16:23.627Z,2.80
2023-05-03T03:18:51.421Z,2.80
2023-05-03T03:21:19.106Z,2.80
2023-05-03T03:23:46.756Z,2.97
2023-05-03T03:26:15.888Z,2.72
2023-05-03T03:28:43.557Z,2.47
2023-05-03T03:31:11.462Z,2.83
2023-05-03T03:33:39.179Z,2.30
2023-05-03T03:36:10.123Z,3.20
2023-05-03T03:38:37.775Z,2.88
2023-05-03T03:41:05.487Z,3.40
2023-05-03T03:43:34.429Z,3.53
2023-05-03T03:46:02.015Z,3.30
2023-05-03T03:48:29.627Z,4.15
2023-05-03T03:50:57.338Z,3.00
2023-05-03T03:53:24.972Z,3.40
2023-05-03T03:55:52.606Z,3.42
2023-05-03T03:58:20.370Z,4.30
2023-05-03T04:00:49.667Z,3.65
2023-05-03T04:03:17.595Z,3.72
2023-05-03T04:05:45.927Z,3.33
2023-05-03T04:08:13.698Z,3.38
2023-05-03T04:10:41.396Z,3.58
2023-05-03T04:13:09.274Z,2.97
2023-05-03T04:15:36.876Z,3.30
2023-05-03T04:18:06.583Z,3.60
2023-05-03T04:20:34.761Z,3.47
2023-05-03T04:23:02.586Z,3.70
2023-05-03T04:25:31.780Z,3.63
2023-05-03T04:27:59.918Z,3.22
2023-05-03T04:30:28.740Z,3.70
2023-05-03T04:32:58.392Z,3.80
2023-05-03T04:35:28.765Z,3.85
2023-05-03T04:37:56.836Z,3.33
2023-05-03T04:40:24.580Z,3.40
2023-05-03T04:42:52.401Z,3.63
2023-05-03T04:45:20.840Z,4.18
2023-05-03T04:47:48.853Z,4.07
2023-05-03T04:50:16.741Z,3.90
2023-05-03T04:52:45.822Z,4.75
2023-05-03T04:55:14.086Z,5.32
2023-05-03T04:57:41.721Z,3.63
2023-05-03T05:00:11.261Z,4.50
2023-05-03T05:02:39.291Z,4.05
2023-05-03T05:05:07.913Z,3.17
2023-05-03T05:07:35.585Z,3.78
2023-05-03T05:10:05.223Z,3.90
2023-05-03T05:12:33.149Z,3.55
2023-05-03T05:15:00.771Z,4.38
2023-05-03T05:17:28.567Z,3.78
2023-05-03T05:19:57.425Z,2.90
2023-05-03T05:22:26.097Z,3.78
2023-05-03T05:24:53.726Z,3.47
2023-05-03T05:27:23.787Z,3.13
2023-05-03T05:29:51.481Z,4.30
2023-05-03T05:32:19.136Z,3.65
2023-05-03T05:34:52.863Z,3.85
2023-05-03T05:37:20.508Z,3.83
2023-05-03T05:39:48.159Z,4.18
2023-05-03T05:42:16.104Z,3.50
2023-05-03T05:44:45.079Z,3.58
2023-05-03T05:47:15.168Z,4.32
2023-05-03T05:49:43.622Z,4.15
2023-05-03T05:52:11.400Z,4.00
2023-05-03T05:54:38.995Z,5.03
2023-05-03T05:57:06.698Z,4.45
2023-05-03T05:59:34.232Z,4.35
2023-05-03T06:02:03.423Z,4.32
2023-05-03T06:04:31.003Z,3.95
2023-05-03T06:06:58.615Z,4.10
2023-05-03T06:09:26.329Z,4.85
2023-05-03T06:11:53.938Z,3.85
2023-05-03T06:14:21.589Z,4.72
2023-05-03T06:16:49.413Z,3.83
2023-05-03T06:19:18.413Z,4.28
2023-05-03T06:21:46.068Z,4.15
2023-05-03T06:24:14.828Z,4.10
2023-05-03T06:26:42.476Z,3.90
2023-05-03T06:29:10.054Z,4.25
2023-05-03T06:31:37.796Z,4.82
2023-05-03T06:34:06.087Z,3.97
2023-05-03T06:36:35.660Z,3.20
2023-05-03T06:39:04.564Z,4.03
2023-05-03T06:41:32.855Z,4.20
2023-05-03T06:44:00.475Z,3.58
2023-05-03T06:46:28.528Z,3.10
2023-05-03T06:48:57.602Z,3.45
2023-05-03T06:51:29.745Z,3.42
2023-05-03T06:54:00.376Z,2.33
2023-05-03T06:56:28.510Z,2.17
2023-05-03T06:58:56.137Z,2.92
2023-05-03T07:01:23.775Z,2.53
2023-05-03T07:03:51.439Z,2.20
2023-05-03T07:06:19.309Z,1.40
2023-05-03T07:08:47.020Z,1.60
2023-05-03T07:11:16.054Z,2.35
2023-05-03T07:13:43.639Z,1.90
2023-05-03T07:16:11.347Z,1.75
2023-05-03T07:18:39.207Z,1.88
2023-05-03T07:21:09.201Z,1.42
2023-05-03T07:23:37.100Z,1.58
2023-05-03T07:26:04.777Z,1.30
2023-05-03T07:28:33.733Z,1.13
2023-05-03T07:31:01.529Z,1.30
2023-05-03T07:33:29.225Z,1.10
2023-05-03T07:35:57.151Z,1.70
2023-05-03T07:38:24.693Z,1.90
2023-05-03T07:40:52.288Z,1.30
2023-05-03T07:43:23.523Z,1.20
2023-05-03T07:45:52.429Z,1.77
2023-05-03T07:48:20.065Z,1.08
2023-05-03T07:50:47.783Z,1.73
2023-05-03T07:53:15.773Z,1.70
2023-05-03T07:55:43.518Z,2.08
2023-05-03T07:58:11.312Z,1.65
2023-05-03T08:00:38.904Z,1.85
2023-05-03T08:03:08.106Z,1.95
2023-05-03T08:05:36.672Z,1.52
2023-05-03T08:08:05.552Z,2.22
2023-05-03T08:10:37.600Z,1.40
2023-05-03T08:13:06.267Z,2.13
2023-05-03T08:15:34.281Z,1.65
2023-05-03T08:18:02.092Z,2.75
2023-05-03T08:20:31.266Z,1.65
2023-05-03T08:22:59.313Z,1.90
2023-05-03T08:25:28.241Z,1.52
2023-05-03T08:27:55.915Z,1.35
2023-05-03T08:30:23.992Z,1.30
2023-05-03T08:32:51.749Z,1.40
2023-05-03T08:35:19.562Z,1.70
2023-05-03T08:37:48.674Z,1.83
2023-05-03T08:40:16.666Z,1.48
2023-05-03T08:42:45.516Z,1.17
2023-05-03T08:45:16.118Z,1.48
2023-05-03T08:47:44.798Z,1.40
2023-05-03T08:50:14.080Z,1.45
2023-05-03T08:52:43.228Z,1.33
2023-05-03T08:55:12.354Z,1.90
2023-05-03T08:57:41.122Z,1.73
2023-05-03T09:00:11.103Z,1.30
2023-05-03T09:02:39.826Z,1.38
2023-05-03T09:05:32.610Z,1.58
2023-05-03T09:08:05.239Z,1.38
2023-05-03T09:10:37.552Z,1.38
2023-05-03T09:13:05.141Z,1.77
2023-05-03T09:15:33.064Z,1.30
2023-05-03T09:18:12.219Z,1.50
2023-05-03T09:20:41.814Z,1.83
2023-05-03T09:23:10.553Z,1.65
2023-05-03T09:25:46.884Z,1.48
2023-05-03T09:28:15.393Z,3.15
2023-05-03T09:30:44.579Z,1.55
2023-05-03T09:33:12.406Z,1.83
2023-05-03T09:35:56.180Z,1.40
2023-05-03T09:38:28.023Z,1.38
2023-05-03T09:40:57.482Z,1.58
2023-05-03T09:43:25.517Z,1.23
2023-05-03T09:45:54.317Z,1.50
2023-05-03T09:48:23.711Z,1.50
2023-05-03T09:50:52.320Z,1.73
2023-05-03T09:53:22.290Z,1.20
2023-05-03T09:55:51.144Z,1.38
2023-05-03T09:58:21.735Z,1.10
2023-05-03T10:00:52.571Z,1.60
2023-05-03T10:03:25.487Z,1.55
2023-05-03T10:05:54.023Z,1.60
2023-05-03T10:08:28.868Z,1.63
2023-05-03T10:10:56.709Z,1.50
2023-05-03T10:13:26.025Z,1.40
2023-05-03T10:15:59.737Z,2.00
2023-05-03T10:18:31.915Z,1.30
2023-05-03T10:21:04.521Z,2.15
2023-05-03T10:23:32.245Z,1.13
2023-05-03T10:26:16.230Z,2.05
2023-05-03T10:28:45.812Z,1.35
2023-05-03T10:31:45.898Z,1.55
2023-05-03T10:34:24.612Z,1.40
2023-05-03T10:36:54.205Z,1.98
2023-05-03T10:39:22.003Z,1.60
2023-05-03T10:42:09.233Z,1.20
2023-05-03T10:44:42.405Z,1.60
2023-05-03T10:47:14.643Z,1.50
2023-05-03T10:49:42.544Z,1.50
2023-05-03T10:52:48.993Z,2.13
2023-05-03T10:55:18.737Z,1.00
2023-05-03T10:57:48.069Z,1.08
2023-05-03T11:00:22.030Z,1.58
2023-05-03T11:03:10.881Z,1.33
2023-05-03T11:05:39.430Z,1.42
2023-05-03T11:08:14.922Z,1.05
2023-05-03T11:10:42.687Z,1.60
2023-05-03T11:13:10.422Z,2.22
2023-05-03T11:15:40.000Z,2.33
2023-05-03T11:18:08.407Z,1.40
2023-05-03T11:20:37.047Z,1.58
2023-05-03T11:23:05.869Z,1.40
2023-05-03T11:25:34.338Z,1.05
2023-05-03T11:28:02.497Z,1.58
2023-05-03T11:30:30.617Z,1.33
2023-05-03T11:33:00.409Z,1.48
2023-05-03T11:35:30.309Z,1.52
2023-05-03T11:37:57.969Z,1.83
2023-05-03T11:40:26.166Z,1.33
2023-05-03T11:42:58.835Z,2.10
2023-05-03T11:45:30.591Z,1.55
2023-05-03T11:48:00.261Z,1.95
2023-05-03T11:50:44.506Z,1.40
2023-05-03T11:53:12.895Z,1.45
2023-05-03T11:55:42.982Z,1.85
2023-05-03T11:58:14.509Z,1.52
2023-05-03T12:00:45.041Z,1.73
2023-05-03T12:03:17.963Z,1.23
2023-05-03T12:05:48.383Z,1.95
2023-05-03T12:08:20.987Z,1.40
2023-05-03T12:10:50.880Z,1.85
2023-05-03T12:13:30.487Z,1.45
2023-05-03T12:16:10.832Z,1.50
2023-05-03T12:18:51.395Z,1.60
2023-05-03T12:23:55.797Z,1.67
2023-05-03T12:26:26.370Z,2.80
2023-05-03T12:28:56.654Z,1.40
2023-05-03T12:31:24.972Z,1.65
2023-05-03T12:34:19.767Z,1.10
2023-05-03T12:36:48.684Z,2.05
2023-05-03T12:39:16.957Z,1.80
2023-05-03T12:44:17.230Z,1.63
2023-05-03T12:46:45.847Z,1.42
2023-05-03T12:49:15.791Z,1.25
2023-05-03T12:51:46.361Z,1.70
2023-05-03T12:54:18.965Z,2.08
2023-05-03T12:56:48.309Z,1.77
2023-05-03T13:02:41.570Z,2.00
2023-05-03T13:04:55.916Z,1.92
2023-05-03T13:07:28.486Z,1.70
2023-05-03T13:12:28.620Z,1.30
2023-05-03T13:14:56.420Z,2.03
2023-05-03T13:17:24.135Z,1.20
2023-05-03T13:19:53.998Z,1.48
2023-05-03T13:22:21.745Z,1.75
2023-05-03T13:24:50.067Z,2.08
2023-05-03T13:27:17.923Z,1.85
2023-05-03T13:29:48.318Z,1.65
2023-05-03T13:32:17.159Z,1.88
2023-05-03T13:34:45.231Z,1.75
2023-05-03T13:37:18.289Z,1.30
2023-05-03T13:39:46.668Z,2.15
2023-05-03T13:42:14.426Z,1.88
2023-05-03T13:44:42.579Z,1.65
2023-05-03T13:47:10.515Z,1.95
2023-05-03T13:49:38.175Z,1.40
2023-05-03T13:52:05.975Z,1.48
2023-05-03T13:54:35.042Z,1.52
2023-05-03T13:57:02.704Z,1.45
2023-05-03T13:59:30.760Z,2.00
2023-05-03T14:02:00.319Z,2.58
2023-05-03T14:04:28.023Z,1.42
2023-05-03T14:06:55.780Z,1.33
2023-05-03T14:09:23.564Z,1.52
2023-05-03T14:11:53.687Z,1.60
2023-05-03T14:14:22.409Z,1.42
2023-05-03T14:16:50.213Z,1.48
2023-05-03T14:19:18.228Z,1.70
2023-05-03T14:21:49.479Z,1.13
2023-05-03T14:24:17.259Z,1.38
2023-05-03T14:26:45.225Z,1.38
2023-05-03T14:29:15.252Z,1.48
2023-05-03T14:31:43.315Z,1.48
2023-05-03T14:34:12.929Z,1.42
2023-05-03T14:36:43.696Z,1.60
2023-05-03T14:39:14.365Z,1.38
2023-05-03T14:41:45.206Z,1.45
2023-05-03T14:44:14.219Z,2.15
2023-05-03T14:46:42.008Z,1.75
2023-05-03T14:49:09.838Z,1.92
2023-05-03T14:51:37.549Z,1.70
2023-05-03T14:54:05.164Z,1.50
2023-05-03T14:56:32.944Z,1.60
2023-05-03T14:59:01.266Z,1.63
2023-05-03T15:01:33.024Z,1.35
2023-05-03T15:04:00.819Z,1.20
2023-05-03T15:06:31.466Z,1.50
2023-05-03T15:08:59.477Z,1.50
2023-05-03T15:11:28.142Z,1.90
2023-05-03T15:13:55.935Z,1.67
2023-05-03T15:16:24.127Z,1.95
2023-05-03T15:18:53.123Z,2.08
2023-05-03T15:21:22.214Z,1.77
2023-05-03T15:23:51.546Z,1.50
2023-05-03T15:26:19.129Z,2.33
2023-05-03T15:28:46.788Z,2.10
2023-05-03T15:31:15.126Z,2.13
2023-05-03T15:33:45.839Z,1.55
2023-05-03T15:36:16.654Z,1.70
2023-05-03T15:38:44.748Z,1.80
2023-05-03T15:41:12.393Z,1.67
2023-05-03T15:43:40.020Z,1.30
2023-05-03T15:46:08.044Z,1.75
2023-05-03T15:48:36.098Z,2.33
2023-05-03T15:51:03.908Z,1.52
2023-05-03T15:53:33.002Z,2.25
2023-05-03T15:56:02.438Z,1.40
2023-05-03T15:58:30.429Z,1.77
2023-05-03T16:00:59.134Z,2.45
2023-05-03T16:03:28.524Z,1.48
2023-05-03T16:05:57.049Z,1.92
2023-05-03T16:08:24.623Z,1.92
2023-05-03T16:10:53.709Z,1.90
2023-05-03T16:13:21.948Z,1.50
2023-05-03T16:15:52.349Z,1.75
2023-05-03T16:18:20.366Z,1.67
2023-05-03T16:20:47.970Z,1.60
2023-05-03T16:23:15.850Z,2.00
2023-05-03T16:25:43.704Z,2.05
2023-05-03T16:28:12.922Z,1.50
2023-05-03T16:30:41.002Z,2.58
2023-05-03T16:33:08.873Z,1.70
2023-05-03T16:35:36.553Z,1.80
2023-05-03T16:38:06.598Z,2.10
2023-05-03T16:40:34.369Z,3.10
2023-05-03T16:43:02.091Z,2.25
2023-05-03T16:45:31.423Z,2.50
2023-05-03T16:48:00.047Z,2.08
2023-05-03T16:50:29.248Z,2.28
2023-05-03T16:52:56.956Z,2.17
2023-05-03T16:55:24.531Z,2.17
2023-05-03T16:57:52.181Z,1.55
2023-05-03T17:00:20.877Z,1.67
2023-05-03T17:02:49.973Z,2.78
2023-05-03T17:05:20.013Z,1.77
2023-05-03T17:07:47.658Z,2.38
2023-05-03T17:10:15.609Z,2.17
2023-05-03T17:12:43.528Z,1.85
2023-05-03T17:15:12.274Z,1.83
2023-05-03T17:17:40.300Z,1.98
2023-05-03T17:20:12.883Z,1.92
2023-05-03T17:22:40.514Z,1.98
2023-05-03T17:25:09.609Z,2.05
2023-05-03T17:27:37.979Z,1.80
2023-05-03T17:30:06.848Z,1.80
2023-05-03T17:32:34.722Z,2.47
2023-05-03T17:35:02.531Z,1.50
2023-05-03T17:37:31.509Z,1.52
2023-05-03T17:39:59.168Z,1.98
2023-05-03T17:42:27.122Z,1.98
2023-05-03T17:44:55.228Z,1.63
2023-05-03T17:47:25.395Z,1.20
2023-05-03T17:49:53.285Z,1.80
2023-05-03T17:52:21.072Z,1.20
2023-05-03T17:54:51.070Z,1.75
2023-05-03T17:57:20.456Z,2.08
2023-05-03T17:59:48.696Z,1.73
2023-05-03T18:02:17.470Z,1.88
2023-05-03T18:04:45.179Z,2.13
2023-05-03T18:07:14.929Z,1.85
2023-05-03T18:09:42.537Z,2.00
2023-05-03T18:12:13.840Z,2.28
2023-05-03T18:14:42.577Z,2.20
2023-05-03T18:17:10.379Z,1.33
2023-05-03T18:19:37.939Z,1.67
2023-05-03T18:22:07.040Z,1.85
2023-05-03T18:24:34.608Z,1.65
2023-05-03T18:27:02.523Z,1.52
2023-05-03T18:29:31.431Z,2.10
2023-05-03T18:32:01.227Z,2.38
2023-05-03T18:34:30.506Z,2.08
2023-05-03T18:37:00.266Z,1.70
2023-05-03T18:39:27.980Z,2.42
2023-05-03T18:41:56.632Z,1.65
2023-05-03T18:44:25.668Z,1.85
2023-05-03T18:46:55.443Z,1.48
2023-05-03T18:49:23.633Z,2.30
2023-05-03T18:51:51.452Z,1.90
2023-05-03T18:54:20.451Z,1.55
2023-05-03T18:56:48.359Z,2.40
2023-05-03T18:59:16.190Z,1.73
2023-05-03T19:01:44.310Z,2.40
2023-05-03T19:04:14.625Z,1.77
2023-05-03T19:06:42.492Z,2.03
2023-05-03T19:09:11.818Z,1.73
2023-05-03T19:11:41.804Z,2.15
2023-05-03T19:14:09.741Z,2.08
2023-05-03T19:16:37.499Z,1.52
2023-05-03T19:19:05.467Z,1.90
2023-05-03T19:21:37.860Z,1.75
2023-05-03T19:24:06.550Z,1.85
2023-05-03T19:26:34.125Z,1.83
2023-05-03T19:29:02.040Z,1.88
2023-05-03T19:31:30.257Z,3.08
2023-05-03T19:33:57.822Z,2.50
2023-05-03T19:36:25.626Z,2.22
2023-05-03T19:38:54.776Z,1.92
2023-05-03T19:41:22.842Z,2.33
2023-05-03T19:43:55.134Z,2.17
2023-05-03T19:46:22.900Z,2.20
2023-05-03T19:48:50.560Z,1.77
2023-05-03T19:51:18.714Z,2.25
2023-05-03T19:53:48.740Z,2.33
2023-05-03T19:56:19.550Z,2.30
2023-05-03T19:58:47.354Z,2.08
2023-05-03T20:01:14.993Z,2.47
2023-05-03T20:03:43.471Z,2.55
2023-05-03T20:06:14.663Z,2.60
2023-05-03T20:08:42.436Z,2.30
2023-05-03T20:11:10.980Z,2.28
2023-05-03T20:13:40.338Z,2.67
2023-05-03T20:16:08.136Z,2.30
2023-05-03T20:18:35.996Z,2.63
2023-05-03T20:21:05.718Z,2.38
2023-05-03T20:23:37.835Z,2.47
2023-05-03T20:26:08.158Z,2.42
2023-05-03T20:28:37.235Z,2.13
2023-05-03T20:31:06.734Z,2.75
2023-05-03T20:33:34.557Z,2.38
2023-05-03T20:36:02.643Z,2.60
2023-05-03T20:38:30.487Z,2.15
2023-05-03T20:40:58.150Z,2.60
2023-05-03T20:43:25.994Z,2.70
2023-05-03T20:45:54.254Z,2.90
2023-05-03T20:48:23.429Z,2.17
2023-05-03T20:50:51.093Z,2.13
2023-05-03T20:53:18.746Z,2.35
2023-05-03T20:55:46.965Z,2.53
2023-05-03T20:58:15.988Z,2.38
2023-05-03T21:00:43.554Z,2.63
2023-05-03T21:03:15.499Z,2.60
2023-05-03T21:05:44.498Z,2.42
2023-05-03T21:08:12.206Z,2.92
2023-05-03T21:10:40.678Z,2.67
2023-05-03T21:13:08.651Z,3.15
2023-05-03T21:15:37.958Z,2.38
2023-05-03T21:18:06.563Z,3.00
2023-05-03T21:20:34.520Z,2.67
2023-05-03T21:23:03.529Z,2.78
2023-05-03T21:25:31.212Z,3.22
2023-05-03T21:28:01.342Z,3.30
2023-05-03T21:30:29.002Z,3.78
2023-05-03T21:32:57.026Z,4.05
2023-05-03T21:35:28.266Z,4.38
2023-05-03T21:38:02.092Z,4.85
2023-05-03T21:40:33.787Z,5.15
2023-05-03T21:43:04.226Z,5.93
2023-05-03T21:45:32.226Z,5.28
2023-05-03T21:48:00.583Z,5.38
2023-05-03T21:50:28.797Z,6.43
2023-05-03T21:52:56.363Z,6.60
2023-05-03T21:55:23.942Z,6.53
2023-05-03T21:57:52.938Z,6.30
2023-05-03T22:00:20.790Z,6.28
2023-05-03T22:02:48.575Z,6.30
2023-05-03T22:05:16.374Z,5.68
2023-05-03T22:07:44.444Z,6.57
2023-05-03T22:10:12.048Z,5.00
2023-05-03T22:12:40.293Z,5.28
2023-05-03T22:15:10.681Z,5.18
2023-05-03T22:17:38.590Z,5.10
2023-05-03T22:20:07.685Z,5.28
2023-05-03T22:22:35.417Z,5.35
2023-05-03T22:25:03.194Z,4.93
2023-05-03T22:27:30.813Z,5.63
2023-05-03T22:29:58.373Z,4.47
2023-05-03T22:32:27.327Z,3.55
2023-05-03T22:34:54.960Z,3.58
2023-05-03T22:37:22.978Z,3.90
2023-05-03T22:39:50.559Z,4.13
2023-05-03T22:42:18.386Z,5.45
2023-05-03T22:44:45.948Z,6.68
2023-05-03T22:47:13.537Z,6.97
2023-05-03T22:49:42.465Z,7.50
2023-05-03T22:52:10.057Z,7.45
2023-05-03T22:54:37.702Z,5.47
2023-05-03T22:57:05.729Z,5.00
2023-05-03T22:59:33.540Z,3.42
2023-05-03T23:02:01.146Z,4.22
2023-05-03T23:04:28.703Z,3.75
2023-05-03T23:06:57.807Z,4.45
2023-05-03T23:09:25.702Z,4.05
2023-05-03T23:11:53.225Z,4.90
2023-05-03T23:14:20.833Z,3.85
2023-05-03T23:16:48.594Z,4.18
2023-05-03T23:19:16.202Z,4.60
2023-05-03T23:21:43.923Z,5.07
2023-05-03T23:24:12.854Z,5.25
2023-05-03T23:26:40.396Z,4.70
2023-05-03T23:29:09.429Z,5.47
2023-05-03T23:31:38.455Z,4.72
2023-05-03T23:34:06.927Z,5.35
2023-05-03T23:36:34.547Z,4.47
2023-05-03T23:39:02.796Z,5.07
2023-05-03T23:41:33.255Z,5.28
2023-05-03T23:44:00.847Z,5.38
2023-05-03T23:46:28.521Z,5.50
2023-05-03T23:48:56.182Z,4.78
2023-05-03T23:51:23.758Z,5.15
2023-05-03T23:53:51.412Z,4.68
2023-05-03T23:56:19.062Z,4.55
2023-05-03T23:58:47.988Z,4.47
